createdAt,value
2022-12-11T00:00:17.273Z,96196.06
2022-12-11T00:02:44.109Z,96198.69
2022-12-11T00:05:11.708Z,96194.19
2022-12-11T00:07:38.787Z,96185.34
2022-12-11T00:10:06.461Z,96192.75
2022-12-11T00:12:33.326Z,96170.38
2022-12-11T00:15:00.194Z,96161.19
2022-12-11T00:17:27.037Z,96152.03
2022-12-11T00:19:53.887Z,96152.69
2022-12-11T00:22:21.925Z,96165.28
2022-12-11T00:24:48.737Z,96139.28
2022-12-11T00:27:15.621Z,96131.78
2022-12-11T00:29:42.587Z,96159.03
2022-12-11T00:32:09.450Z,96154.28
2022-12-11T00:34:36.342Z,96147.44
2022-12-11T00:37:03.354Z,96143.91
2022-12-11T00:39:30.205Z,96161.06
2022-12-11T00:41:58.377Z,96163.00
2022-12-11T00:44:25.660Z,96178.69
2022-12-11T00:46:52.461Z,96168.41
2022-12-11T00:49:19.497Z,96176.88
2022-12-11T00:51:46.283Z,96198.47
2022-12-11T00:54:13.329Z,96202.94
2022-12-11T00:56:40.177Z,96211.13
2022-12-11T00:59:07.335Z,96206.97
2022-12-11T01:01:34.809Z,96214.41
2022-12-11T01:04:02.130Z,96219.69
2022-12-11T01:06:29.143Z,96205.91
2022-12-11T01:09:15.497Z,96201.34
2022-12-11T01:11:43.304Z,96204.41
2022-12-11T01:14:11.868Z,96226.94
2022-12-11T01:16:38.952Z,96217.06
2022-12-11T01:19:06.147Z,96206.94
2022-12-11T01:21:33.124Z,96203.31
2022-12-11T01:24:00.020Z,96197.78
2022-12-11T01:26:26.926Z,96196.66
2022-12-11T01:28:53.746Z,96197.13
2022-12-11T01:31:22.246Z,96185.59
2022-12-11T01:33:49.257Z,96194.97
2022-12-11T01:36:19.594Z,96196.47
2022-12-11T01:38:48.044Z,96186.38
2022-12-11T01:41:15.505Z,96196.53
2022-12-11T01:44:03.173Z,96208.34
2022-12-11T01:46:31.688Z,96184.69
2022-12-11T01:49:00.845Z,96171.28
2022-12-11T01:51:32.144Z,96184.41
2022-12-11T01:54:02.374Z,96189.41
2022-12-11T01:56:33.041Z,96182.81
2022-12-11T01:59:07.084Z,96192.63
2022-12-11T02:02:01.571Z,96197.28
2022-12-11T02:04:29.974Z,96186.78
2022-12-11T02:06:56.898Z,96198.28
2022-12-11T02:09:27.556Z,96194.06
2022-12-11T02:12:13.141Z,96203.28
2022-12-11T02:14:43.275Z,96198.72
2022-12-11T02:17:16.976Z,96185.88
2022-12-11T02:20:02.119Z,96193.09
2022-12-11T02:23:01.490Z,96185.00
2022-12-11T02:25:59.463Z,96180.41
2022-12-11T02:28:39.279Z,96170.59
2022-12-11T02:31:13.194Z,96174.97
2022-12-11T02:33:49.765Z,96169.16
2022-12-11T02:36:20.301Z,96170.84
2022-12-11T02:38:51.835Z,96162.63
2022-12-11T02:41:22.052Z,96166.34
2022-12-11T02:43:51.186Z,96182.19
2022-12-11T02:46:20.959Z,96201.56
2022-12-11T02:48:51.209Z,96188.13
2022-12-11T02:51:25.239Z,96178.94
2022-12-11T02:53:57.448Z,96182.97
2022-12-11T02:56:30.922Z,96189.13
2022-12-11T02:59:03.988Z,96178.16
2022-12-11T03:01:31.092Z,96180.75
2022-12-11T03:03:58.479Z,96192.06
2022-12-11T03:06:32.684Z,96194.63
2022-12-11T03:08:59.693Z,96177.41
2022-12-11T03:11:26.498Z,96173.94
2022-12-11T03:13:54.423Z,96177.59
2022-12-11T03:16:47.484Z,96184.88
2022-12-11T03:19:38.105Z,96177.16
2022-12-11T03:22:13.526Z,96185.63
2022-12-11T03:25:04.419Z,96180.63
2022-12-11T03:27:39.603Z,96162.75
2022-12-11T03:30:11.782Z,96170.22
2022-12-11T03:32:44.634Z,96163.75
2022-12-11T03:35:31.061Z,96165.63
2022-12-11T03:38:02.863Z,96183.84
2022-12-11T03:40:33.359Z,96194.13
2022-12-11T03:43:00.818Z,96190.31
2022-12-11T03:45:30.187Z,96181.56
2022-12-11T03:47:59.996Z,96194.69
2022-12-11T03:50:31.149Z,96191.09
2022-12-11T03:52:58.770Z,96186.44
2022-12-11T03:55:28.331Z,96186.69
2022-12-11T03:57:55.354Z,96174.69
2022-12-11T04:00:22.279Z,96180.09
2022-12-11T04:03:13.338Z,96200.72
2022-12-11T04:05:42.606Z,96212.31
2022-12-11T04:08:09.747Z,96219.59
2022-12-11T04:10:36.895Z,96222.09
2022-12-11T04:13:03.945Z,96213.31
2022-12-11T04:15:30.751Z,96222.25
2022-12-11T04:18:16.354Z,96221.56
2022-12-11T04:21:01.764Z,96220.09
2022-12-11T04:23:47.210Z,96208.16
2022-12-11T04:26:20.558Z,96214.09
2022-12-11T04:28:48.785Z,96221.66
2022-12-11T04:31:21.614Z,96224.97
2022-12-11T04:33:48.541Z,96228.63
2022-12-11T04:36:15.910Z,96220.81
2022-12-11T04:38:42.769Z,96222.78
2022-12-11T04:41:15.830Z,96212.44
2022-12-11T04:43:45.319Z,96212.72
2022-12-11T04:46:18.230Z,96217.84
2022-12-11T04:48:46.008Z,96220.28
2022-12-11T04:51:12.998Z,96225.47
2022-12-11T04:53:39.945Z,96229.00
2022-12-11T04:56:10.017Z,96240.78
2022-12-11T04:58:37.219Z,96222.56
2022-12-11T05:01:11.987Z,96214.22
2022-12-11T05:03:39.072Z,96221.47
2022-12-11T05:06:06.669Z,96219.94
2022-12-11T05:08:36.391Z,96218.47
2022-12-11T05:11:05.984Z,96215.69
2022-12-11T05:13:33.175Z,96208.47
2022-12-11T05:16:00.563Z,96213.84
2022-12-11T05:18:27.467Z,96217.84
2022-12-11T05:21:04.130Z,96222.88
2022-12-11T05:23:31.155Z,96208.34
2022-12-11T05:26:00.432Z,96215.44
2022-12-11T05:28:29.217Z,96219.63
2022-12-11T05:31:06.053Z,96214.22
2022-12-11T05:33:34.339Z,96221.47
2022-12-11T05:36:01.582Z,96236.06
2022-12-11T05:38:28.480Z,96228.44
2022-12-11T05:41:04.136Z,96247.31
2022-12-11T05:43:33.625Z,96250.34
2022-12-11T05:46:08.139Z,96242.38
2022-12-11T05:48:35.444Z,96247.41
2022-12-11T05:51:02.936Z,96250.75
2022-12-11T05:53:30.041Z,96230.88
2022-12-11T05:56:05.863Z,96227.41
2022-12-11T05:58:34.115Z,96236.16
2022-12-11T06:01:01.391Z,96235.88
2022-12-11T06:03:28.729Z,96232.63
2022-12-11T06:05:55.931Z,96236.97
2022-12-11T06:08:22.868Z,96233.00
2022-12-11T06:10:50.763Z,96227.41
2022-12-11T06:13:17.664Z,96251.88
2022-12-11T06:15:45.027Z,96257.47
2022-12-11T06:18:11.989Z,96266.38
2022-12-11T06:20:39.428Z,96252.91
2022-12-11T06:23:06.445Z,96259.53
2022-12-11T06:25:33.696Z,96272.66
2022-12-11T06:28:00.555Z,96282.38
2022-12-11T06:30:38.909Z,96280.06
2022-12-11T06:33:06.975Z,96264.34
2022-12-11T06:35:40.125Z,96264.75
2022-12-11T06:38:09.241Z,96269.81
2022-12-11T06:40:36.116Z,96275.94
2022-12-11T06:43:03.657Z,96262.19
2022-12-11T06:45:30.968Z,96274.19
2022-12-11T06:47:58.857Z,96274.47
2022-12-11T06:50:27.114Z,96287.41
2022-12-11T06:52:53.983Z,96295.44
2022-12-11T06:55:20.944Z,96288.59
2022-12-11T06:57:47.801Z,96300.03
2022-12-11T07:00:15.690Z,96299.41
2022-12-11T07:02:42.561Z,96294.28
2022-12-11T07:05:09.846Z,96278.69
2022-12-11T07:07:36.952Z,96285.09
2022-12-11T07:10:08.335Z,96291.41
2022-12-11T07:12:36.145Z,96314.84
2022-12-11T07:15:04.293Z,96317.84
2022-12-11T07:17:31.452Z,96306.50
2022-12-11T07:19:58.390Z,96311.13
2022-12-11T07:22:25.220Z,96310.69
2022-12-11T07:24:52.097Z,96307.72
2022-12-11T07:27:18.955Z,96297.06
2022-12-11T07:29:45.874Z,96294.28
2022-12-11T07:32:12.800Z,96294.28
2022-12-11T07:34:40.126Z,96289.66
2022-12-11T07:37:07.072Z,96287.59
2022-12-11T07:39:34.110Z,96281.06
2022-12-11T07:42:01.004Z,96291.72
2022-12-11T07:44:27.845Z,96313.28
2022-12-11T07:46:54.688Z,96312.00
2022-12-11T07:49:21.622Z,96323.16
2022-12-11T07:51:48.499Z,96301.28
2022-12-11T07:54:19.060Z,96298.09
2022-12-11T07:56:53.166Z,96308.81
2022-12-11T07:59:21.291Z,96317.72
2022-12-11T08:01:48.426Z,96321.72
2022-12-11T08:04:16.046Z,96321.16
2022-12-11T08:06:43.602Z,96330.59
2022-12-11T08:09:21.159Z,96326.50
2022-12-11T08:11:52.192Z,96327.50
2022-12-11T08:14:19.795Z,96326.66
2022-12-11T08:16:47.237Z,96330.19
2022-12-11T08:19:14.551Z,96326.34
2022-12-11T08:21:41.598Z,96305.00
2022-12-11T08:24:10.095Z,96315.19
2022-12-11T08:26:37.146Z,96311.41
2022-12-11T08:29:04.064Z,96313.09
2022-12-11T08:31:33.581Z,96308.44
2022-12-11T08:34:00.492Z,96307.09
2022-12-11T08:36:27.814Z,96316.00
2022-12-11T08:38:56.237Z,96322.53
2022-12-11T08:41:29.716Z,96332.38
2022-12-11T08:44:00.995Z,96328.47
2022-12-11T08:46:31.541Z,96328.09
2022-12-11T08:48:59.592Z,96333.56
2022-12-11T08:51:30.382Z,96330.72
2022-12-11T08:54:00.213Z,96331.22
2022-12-11T08:56:28.382Z,96317.50
2022-12-11T08:58:55.650Z,96321.38
2022-12-11T09:01:26.909Z,96329.16
2022-12-11T09:03:56.797Z,96320.53
2022-12-11T09:06:26.279Z,96324.34
2022-12-11T09:08:54.208Z,96324.38
2022-12-11T09:11:24.346Z,96318.44
2022-12-11T09:13:54.224Z,96319.31
2022-12-11T09:16:24.657Z,96319.28
2022-12-11T09:18:53.670Z,96320.75
2022-12-11T09:21:24.332Z,96311.97
2022-12-11T09:24:10.802Z,96307.56
2022-12-11T09:26:38.911Z,96295.47
2022-12-11T09:29:06.508Z,96298.75
2022-12-11T09:31:36.156Z,96303.84
2022-12-11T09:34:07.194Z,96287.00
2022-12-11T09:36:35.201Z,96291.84
2022-12-11T09:39:04.438Z,96285.22
2022-12-11T09:41:50.350Z,96289.63
2022-12-11T09:44:31.568Z,96284.84
2022-12-11T09:46:59.437Z,96289.38
2022-12-11T09:49:37.985Z,96282.72
2022-12-11T09:52:11.935Z,96279.81
2022-12-11T09:54:53.204Z,96273.53
2022-12-11T09:57:20.608Z,96277.41
2022-12-11T09:59:49.995Z,96276.38
2022-12-11T10:02:42.782Z,96283.84
2022-12-11T10:05:27.866Z,96278.84
2022-12-11T10:08:09.073Z,96282.97
2022-12-11T10:10:43.834Z,96267.94
2022-12-11T10:13:16.665Z,96269.94
2022-12-11T10:16:37.163Z,96279.75
2022-12-11T10:19:04.780Z,96269.75
2022-12-11T10:21:40.127Z,96273.00
2022-12-11T10:25:07.649Z,96270.69
2022-12-11T10:27:23.585Z,96270.09
2022-12-11T10:30:18.435Z,96278.59
2022-12-11T10:33:02.130Z,96279.75
2022-12-11T10:35:55.329Z,96280.69
2022-12-11T10:38:22.289Z,96279.69
2022-12-11T10:41:18.109Z,96281.66
2022-12-11T10:43:47.849Z,96292.13
2022-12-11T10:46:19.084Z,96295.06
2022-12-11T10:48:59.494Z,96289.13
2022-12-11T10:51:32.875Z,96283.13
2022-12-11T10:54:08.771Z,96281.72
2022-12-11T10:56:38.155Z,96272.97
2022-12-11T10:59:05.537Z,96277.84
2022-12-11T11:01:33.206Z,96292.00
2022-12-11T11:04:06.753Z,96284.53
2022-12-11T11:06:34.235Z,96269.75
2022-12-11T11:09:02.099Z,96270.41
2022-12-11T11:11:38.319Z,96261.44
2022-12-11T11:14:05.341Z,96270.78
2022-12-11T11:16:35.403Z,96269.63
2022-12-11T11:19:02.581Z,96252.84
2022-12-11T11:21:30.440Z,96260.13
2022-12-11T11:23:58.327Z,96257.53
2022-12-11T11:26:38.287Z,96249.50
2022-12-11T11:29:26.628Z,96241.31
2022-12-11T11:31:53.837Z,96231.63
2022-12-11T11:34:26.216Z,96236.56
2022-12-11T11:36:58.122Z,96240.69
2022-12-11T11:39:38.358Z,96235.94
2022-12-11T11:42:18.900Z,96237.25
2022-12-11T11:45:14.010Z,96240.03
2022-12-11T11:48:11.097Z,96239.81
2022-12-11T11:50:45.160Z,96248.19
2022-12-11T11:53:16.764Z,96251.75
2022-12-11T11:56:06.092Z,96257.38
2022-12-11T11:58:50.013Z,96268.44
2022-12-11T12:01:20.286Z,96268.25
2022-12-11T12:03:50.981Z,96260.09
2022-12-11T12:06:51.671Z,96257.38
2022-12-11T12:09:41.671Z,96253.09
2022-12-11T12:12:47.622Z,96249.53
2022-12-11T12:15:35.820Z,96249.44
2022-12-11T12:19:00.935Z,96239.56
2022-12-11T12:21:33.556Z,96249.84
2022-12-11T12:24:12.490Z,96254.09
2022-12-11T12:26:45.845Z,96247.03
2022-12-11T12:29:24.829Z,96246.66
2022-12-11T12:32:09.010Z,96253.28
2022-12-11T12:34:42.366Z,96255.31
2022-12-11T12:37:31.222Z,96262.13
2022-12-11T12:40:17.025Z,96250.88
2022-12-11T12:42:49.851Z,96249.66
2022-12-11T12:45:34.470Z,96245.53
2022-12-11T12:48:02.638Z,96232.16
2022-12-11T12:50:40.582Z,96241.16
2022-12-11T12:53:14.683Z,96223.69
2022-12-11T12:55:45.619Z,96232.69
2022-12-11T12:58:28.233Z,96242.91
2022-12-11T13:01:06.678Z,96233.09
2022-12-11T13:03:37.917Z,96247.13
2022-12-11T13:06:09.366Z,96257.38
2022-12-11T13:08:52.988Z,96250.50
2022-12-11T13:11:21.727Z,96251.53
2022-12-11T13:14:03.858Z,96254.66
2022-12-11T13:16:40.341Z,96251.53
2022-12-11T13:19:35.433Z,96264.47
2022-12-11T13:22:15.104Z,96263.03
2022-12-11T13:24:49.039Z,96270.50
2022-12-11T13:27:37.376Z,96285.03
2022-12-11T13:30:25.243Z,96289.84
2022-12-11T13:33:04.639Z,96293.19
2022-12-11T13:35:33.852Z,96302.97
2022-12-11T13:38:06.173Z,96319.44
2022-12-11T13:40:38.756Z,96306.94
2022-12-11T13:43:17.432Z,96319.59
2022-12-11T13:45:49.744Z,96308.38
2022-12-11T13:48:25.868Z,96309.41
2022-12-11T13:50:55.223Z,96335.50
2022-12-11T13:53:22.654Z,96330.19
2022-12-11T13:56:02.055Z,96319.31
2022-12-11T13:58:31.203Z,96332.69
2022-12-11T14:01:22.704Z,96330.00
2022-12-11T14:03:58.413Z,96344.47
2022-12-11T14:06:28.903Z,96352.28
2022-12-11T14:09:00.555Z,96354.84
2022-12-11T14:11:34.538Z,96338.31
2022-12-11T14:14:05.943Z,96344.31
2022-12-11T14:16:33.567Z,96369.28
2022-12-11T14:19:10.253Z,96363.25
2022-12-11T14:21:37.452Z,96354.50
2022-12-11T14:24:06.612Z,96374.19
2022-12-11T14:26:38.991Z,96365.63
2022-12-11T14:29:06.710Z,96363.09
2022-12-11T14:31:52.079Z,96377.53
2022-12-11T14:34:30.714Z,96373.50
2022-12-11T14:36:59.560Z,96378.00
2022-12-11T14:39:33.983Z,96363.72
2022-12-11T14:42:08.172Z,96375.28
2022-12-11T14:44:46.478Z,96369.91
2022-12-11T14:47:22.576Z,96376.44
2022-12-11T14:49:58.752Z,96392.78
2022-12-11T14:52:36.050Z,96405.25
2022-12-11T14:55:08.624Z,96396.41
2022-12-11T14:57:37.302Z,96391.50
2022-12-11T15:00:05.861Z,96409.19
2022-12-11T15:02:36.128Z,96417.97
2022-12-11T15:05:06.225Z,96432.78
2022-12-11T15:07:33.985Z,96420.84
2022-12-11T15:10:01.050Z,96435.81
2022-12-11T15:12:28.074Z,96437.50
2022-12-11T15:15:00.837Z,96439.19
2022-12-11T15:17:30.935Z,96436.16
2022-12-11T15:20:10.000Z,96451.63
2022-12-11T15:22:37.660Z,96442.88
2022-12-11T15:25:05.970Z,96449.28
2022-12-11T15:27:39.150Z,96457.16
2022-12-11T15:30:31.436Z,96482.69
2022-12-11T15:33:11.982Z,96477.16
2022-12-11T15:35:40.192Z,96483.53
2022-12-11T15:38:25.072Z,96490.25
2022-12-11T15:40:52.121Z,96495.13
2022-12-11T15:43:18.969Z,96484.38
2022-12-11T15:45:45.969Z,96489.44
2022-12-11T15:48:13.158Z,96496.97
2022-12-11T15:50:40.312Z,96509.25
2022-12-11T15:53:07.242Z,96514.09
2022-12-11T15:55:35.154Z,96503.50
2022-12-11T15:58:06.056Z,96525.00
2022-12-11T16:00:32.980Z,96529.72
2022-12-11T16:02:59.982Z,96531.91
2022-12-11T16:05:27.167Z,96521.81
2022-12-11T16:07:56.595Z,96520.13
2022-12-11T16:10:23.539Z,96524.16
2022-12-11T16:12:50.520Z,96532.53
2022-12-11T16:15:23.421Z,96519.22
2022-12-11T16:17:58.952Z,96527.84
2022-12-11T16:20:25.823Z,96526.13
2022-12-11T16:22:52.668Z,96520.09
2022-12-11T16:25:19.691Z,96520.41
2022-12-11T16:27:46.521Z,96535.53
2022-12-11T16:30:14.059Z,96550.59
2022-12-11T16:32:40.958Z,96553.00
2022-12-11T16:35:07.912Z,96566.41
2022-12-11T16:37:35.073Z,96577.41
2022-12-11T16:40:01.957Z,96571.25
2022-12-11T16:42:28.754Z,96565.84
2022-12-11T16:45:03.895Z,96569.13
2022-12-11T16:47:30.771Z,96563.53
2022-12-11T16:50:01.092Z,96575.91
2022-12-11T16:52:28.595Z,96588.16
2022-12-11T16:54:57.053Z,96581.28
2022-12-11T16:57:24.593Z,96581.47
2022-12-11T16:59:51.655Z,96580.00
2022-12-11T17:02:20.019Z,96602.16
2022-12-11T17:04:52.116Z,96595.72
2022-12-11T17:07:20.707Z,96601.03
2022-12-11T17:09:47.792Z,96599.97
2022-12-11T17:12:14.636Z,96603.59
2022-12-11T17:14:41.518Z,96611.19
2022-12-11T17:17:09.304Z,96612.22
2022-12-11T17:19:36.549Z,96613.31
2022-12-11T17:22:04.648Z,96620.66
2022-12-11T17:24:31.636Z,96619.84
2022-12-11T17:26:59.779Z,96614.78
2022-12-11T17:29:26.686Z,96611.97
2022-12-11T17:31:53.707Z,96602.66
2022-12-11T17:34:20.622Z,96601.38
2022-12-11T17:36:47.715Z,96592.25
2022-12-11T17:39:14.669Z,96588.84
2022-12-11T17:41:41.569Z,96581.56
2022-12-11T17:44:08.473Z,96603.41
2022-12-11T17:46:35.400Z,96612.25
2022-12-11T17:49:04.478Z,96631.25
2022-12-11T17:51:31.560Z,96637.03
2022-12-11T17:53:58.542Z,96621.66
2022-12-11T17:56:26.414Z,96631.94
2022-12-11T17:58:53.456Z,96615.59
2022-12-11T18:01:21.079Z,96636.41
2022-12-11T18:03:48.348Z,96642.00
2022-12-11T18:06:16.890Z,96638.00
2022-12-11T18:08:45.702Z,96645.84
2022-12-11T18:11:18.048Z,96655.97
2022-12-11T18:13:46.020Z,96651.84
2022-12-11T18:16:27.523Z,96663.66
2022-12-11T18:18:54.874Z,96673.66
2022-12-11T18:21:31.302Z,96664.84
2022-12-11T18:24:00.122Z,96659.22
2022-12-11T18:26:28.103Z,96662.16
2022-12-11T18:28:55.536Z,96647.75
2022-12-11T18:31:23.128Z,96672.81
2022-12-11T18:33:51.297Z,96658.56
2022-12-11T18:36:19.809Z,96670.53
2022-12-11T18:38:48.070Z,96674.56
2022-12-11T18:41:17.311Z,96683.16
2022-12-11T18:43:44.867Z,96672.53
2022-12-11T18:46:14.910Z,96673.22
2022-12-11T18:48:43.471Z,96682.09
2022-12-11T18:51:14.402Z,96683.78
2022-12-11T18:53:41.536Z,96687.59
2022-12-11T18:56:11.453Z,96700.84
2022-12-11T18:58:39.263Z,96697.25
2022-12-11T19:01:24.870Z,96700.63
2022-12-11T19:03:58.811Z,96703.75
2022-12-11T19:06:33.238Z,96725.88
2022-12-11T19:09:00.380Z,96717.69
2022-12-11T19:11:29.476Z,96722.09
2022-12-11T19:13:56.808Z,96718.00
2022-12-11T19:16:27.496Z,96723.34
2022-12-11T19:18:54.657Z,96723.59
2022-12-11T19:21:21.700Z,96719.34
2022-12-11T19:23:49.813Z,96723.50
2022-12-11T19:26:19.082Z,96721.56
2022-12-11T19:28:47.765Z,96716.72
2022-12-11T19:31:21.176Z,96735.22
2022-12-11T19:33:48.522Z,96729.88
2022-12-11T19:36:18.356Z,96742.06
2022-12-11T19:38:46.678Z,96742.13
2022-12-11T19:41:19.403Z,96752.69
2022-12-11T19:43:46.846Z,96749.28
2022-12-11T19:46:15.089Z,96760.81
2022-12-11T19:48:42.765Z,96766.31
2022-12-11T19:51:15.870Z,96775.78
2022-12-11T19:53:44.776Z,96781.56
2022-12-11T19:56:12.690Z,96786.63
2022-12-11T19:58:41.615Z,96793.66
2022-12-11T20:01:09.936Z,96804.09
2022-12-11T20:03:37.998Z,96806.22
2022-12-11T20:06:06.515Z,96810.91
2022-12-11T20:08:49.713Z,96814.41
2022-12-11T20:11:19.150Z,96810.75
2022-12-11T20:13:49.756Z,96805.38
2022-12-11T20:16:20.016Z,96809.16
2022-12-11T20:18:56.103Z,96811.84
2022-12-11T20:21:23.984Z,96814.53
2022-12-11T20:23:51.371Z,96813.38
2022-12-11T20:26:23.917Z,96805.63
2022-12-11T20:28:52.256Z,96814.53
2022-12-11T20:31:23.006Z,96821.41
2022-12-11T20:33:51.346Z,96797.44
2022-12-11T20:36:20.886Z,96812.41
2022-12-11T20:38:48.514Z,96798.00
2022-12-11T20:41:18.966Z,96785.28
2022-12-11T20:43:49.435Z,96795.16
2022-12-11T20:46:17.346Z,96797.16
2022-12-11T20:48:45.575Z,96802.09
2022-12-11T20:51:19.615Z,96803.16
2022-12-11T20:53:56.566Z,96805.72
2022-12-11T20:56:25.151Z,96820.41
2022-12-11T20:58:52.225Z,96820.72
2022-12-11T21:01:22.761Z,96825.78
2022-12-11T21:03:50.633Z,96835.91
2022-12-11T21:06:23.216Z,96838.03
2022-12-11T21:08:50.300Z,96836.06
2022-12-11T21:11:20.660Z,96842.00
2022-12-11T21:13:50.630Z,96852.81
2022-12-11T21:16:19.066Z,96847.31
2022-12-11T21:18:46.771Z,96852.31
2022-12-11T21:21:13.835Z,96852.69
2022-12-11T21:23:41.486Z,96847.25
2022-12-11T21:26:08.753Z,96863.03
2022-12-11T21:28:49.284Z,96849.44
2022-12-11T21:31:22.300Z,96854.16
2022-12-11T21:33:52.729Z,96870.31
2022-12-11T21:36:20.417Z,96853.63
2022-12-11T21:38:48.503Z,96860.50
2022-12-11T21:41:23.213Z,96858.53
2022-12-11T21:44:56.655Z,96863.34
2022-12-11T21:46:40.191Z,96859.19
2022-12-11T21:49:08.515Z,96865.78
2022-12-11T21:51:42.550Z,96863.09
2022-12-11T21:54:15.686Z,96862.53
2022-12-11T21:56:43.389Z,96858.75
2022-12-11T21:59:10.481Z,96861.69
2022-12-11T22:01:42.353Z,96863.06
2022-12-11T22:04:10.834Z,96859.41
2022-12-11T22:06:38.026Z,96869.50
2022-12-11T22:09:06.022Z,96870.63
2022-12-11T22:11:34.284Z,96867.66
2022-12-11T22:14:03.421Z,96872.31
2022-12-11T22:16:30.705Z,96884.88
2022-12-11T22:18:57.628Z,96890.94
2022-12-11T22:21:24.611Z,96891.81
2022-12-11T22:23:51.838Z,96883.16
2022-12-11T22:26:21.732Z,96880.47
2022-12-11T22:28:49.096Z,96886.53
2022-12-11T22:31:19.880Z,96891.88
2022-12-11T22:33:47.727Z,96903.22
2022-12-11T22:36:15.494Z,96899.97
2022-12-11T22:38:42.417Z,96914.75
2022-12-11T22:41:23.480Z,96909.50
2022-12-11T22:43:51.123Z,96918.66
2022-12-11T22:46:21.857Z,96917.41
2022-12-11T22:48:49.752Z,96917.72
2022-12-11T22:51:17.024Z,96919.53
2022-12-11T22:53:44.258Z,96919.72
2022-12-11T22:56:12.830Z,96915.38
2022-12-11T22:58:40.693Z,96918.44
2022-12-11T23:01:13.792Z,96921.94
2022-12-11T23:03:41.217Z,96925.25
2022-12-11T23:06:11.249Z,96928.19
2022-12-11T23:08:40.017Z,96922.28
2022-12-11T23:11:15.601Z,96922.28
2022-12-11T23:13:42.986Z,96913.97
2022-12-11T23:16:10.670Z,96922.41
2022-12-11T23:18:38.195Z,96927.91
2022-12-11T23:21:07.059Z,96920.16
2022-12-11T23:23:33.976Z,96901.13
2022-12-11T23:26:00.921Z,96906.09
2022-12-11T23:28:27.950Z,96913.03
2022-12-11T23:30:55.181Z,96918.13
2022-12-11T23:33:22.705Z,96909.84
2022-12-11T23:35:49.620Z,96906.28
2022-12-11T23:38:17.750Z,96909.72
2022-12-11T23:40:44.931Z,96889.56
2022-12-11T23:43:12.162Z,96898.91
2022-12-11T23:45:38.946Z,96899.91
2022-12-11T23:48:05.807Z,96902.81
2022-12-11T23:50:33.078Z,96912.41
2022-12-11T23:53:00.435Z,96901.84
2022-12-11T23:55:27.822Z,96914.94
2022-12-11T23:57:54.999Z,96896.06
